Time;durP1;ratioP1;P1;durP2;ratioP2;P2;SDS_P1;SDS_P2;PMS_P1;PMS_P2;Temp;Humidity;BMP_temperature;BMP_pressure;BME280_temperature;BME280_humidity;BME280_pressure;Samples;Min_cycle;Max_cycle;Signal;HPM_P1;HPM_P2
2024/01/29 00:00:35;;;;;;;6.82;4.13;;;;;;;;;;5097261;28;20051;-71
2024/01/29 00:03:01;;;;;;;7.47;4.40;;;;;;;;;;5108462;28;20185;-71
2024/01/29 00:05:27;;;;;;;7.85;4.22;;;;;;;;;;5093074;28;20498;-72
2024/01/29 00:07:53;;;;;;;5.80;3.92;;;;;;;;;;5091370;28;20251;-71
2024/01/29 00:10:21;;;;;;;5.47;3.47;;;;;;;;;;5108430;28;20044;-71
2024/01/29 00:12:48;;;;;;;4.75;3.50;;;;;;;;;;5108130;28;20100;-71
2024/01/29 00:15:14;;;;;;;8.05;4.28;;;;;;;;;;5109173;28;20130;-71
2024/01/29 00:17:40;;;;;;;5.88;3.67;;;;;;;;;;5108424;28;20040;-70
2024/01/29 00:20:06;;;;;;;5.43;4.10;;;;;;;;;;5103955;28;20043;-70
2024/01/29 00:22:32;;;;;;;7.07;3.78;;;;;;;;;;5087966;28;20051;-70
2024/01/29 00:24:58;;;;;;;9.15;4.10;;;;;;;;;;5088120;28;20036;-70
2024/01/29 00:27:24;;;;;;;8.63;4.00;;;;;;;;;;5088319;28;20055;-70
2024/01/29 00:29:50;;;;;;;7.95;4.20;;;;;;;;;;5088171;28;20548;-70
2024/01/29 00:32:16;;;;;;;7.40;3.95;;;;;;;;;;5071259;28;20051;-70
2024/01/29 00:34:43;;;;;;;8.52;4.38;;;;;;;;;;5088309;28;20551;-69
2024/01/29 00:37:09;;;;;;;9.75;4.18;;;;;;;;;;5087560;28;20044;-69
2024/01/29 00:39:35;;;;;;;7.68;4.10;;;;;;;;;;5096398;28;20043;-70
2024/01/29 00:42:01;;;;;;;9.10;4.40;;;;;;;;;;5096552;28;20356;-70
2024/01/29 00:44:28;;;;;;;6.15;3.67;;;;;;;;;;5094600;28;20039;-70
2024/01/29 00:46:54;;;;;;;6.30;4.30;;;;;;;;;;5108519;28;20092;-70
2024/01/29 00:49:21;;;;;;;6.97;4.40;;;;;;;;;;5107986;28;20118;-71
2024/01/29 00:51:47;;;;;;;6.28;3.92;;;;;;;;;;5106991;28;20096;-70
2024/01/29 00:54:13;;;;;;;9.57;4.30;;;;;;;;;;5087302;28;20071;-70
2024/01/29 00:56:39;;;;;;;6.13;4.22;;;;;;;;;;5095162;28;20081;-70
2024/01/29 00:59:05;;;;;;;6.20;3.78;;;;;;;;;;5107993;28;20044;-70
2024/01/29 01:01:31;;;;;;;7.50;4.47;;;;;;;;;;5075454;28;20101;-70
2024/01/29 01:03:57;;;;;;;6.65;3.92;;;;;;;;;;5088966;28;20490;-70
2024/01/29 01:06:23;;;;;;;5.63;3.67;;;;;;;;;;5107461;28;20043;-70
2024/01/29 01:08:49;;;;;;;6.45;4.18;;;;;;;;;;5107629;28;20036;-71
2024/01/29 01:11:14;;;;;;;5.65;4.20;;;;;;;;;;5107127;28;20130;-70
2024/01/29 01:13:40;;;;;;;7.43;3.90;;;;;;;;;;5090156;28;20035;-70
2024/01/29 01:16:06;;;;;;;7.22;4.22;;;;;;;;;;5107637;28;20509;-70
2024/01/29 01:18:32;;;;;;;6.88;4.18;;;;;;;;;;5107690;28;20343;-70
2024/01/29 01:20:59;;;;;;;7.40;4.40;;;;;;;;;;5097429;28;20455;-70
2024/01/29 01:23:25;;;;;;;7.35;4.20;;;;;;;;;;5086542;28;20046;-71
2024/01/29 01:25:51;;;;;;;7.63;3.88;;;;;;;;;;5087232;28;20396;-70
2024/01/29 01:28:17;;;;;;;7.20;4.45;;;;;;;;;;5069578;28;20039;-71
2024/01/29 01:30:43;;;;;;;5.40;4.07;;;;;;;;;;5086739;28;20036;-71
2024/01/29 01:33:09;;;;;;;6.68;3.90;;;;;;;;;;5097244;28;20685;-71
2024/01/29 01:35:35;;;;;;;8.75;4.25;;;;;;;;;;5107231;28;20039;-71
2024/01/29 01:38:01;;;;;;;7.28;4.05;;;;;;;;;;5088783;28;20043;-71
2024/01/29 01:40:26;;;;;;;7.30;3.95;;;;;;;;;;5101940;28;20039;-71
2024/01/29 01:42:53;;;;;;;5.13;4.00;;;;;;;;;;5088022;28;20076;-72
2024/01/29 01:45:18;;;;;;;7.05;3.92;;;;;;;;;;5086791;28;20042;-72
2024/01/29 01:47:44;;;;;;;6.10;4.05;;;;;;;;;;5087045;28;20036;-71
2024/01/29 01:50:11;;;;;;;6.32;3.83;;;;;;;;;;5105205;28;20051;-72
2024/01/29 01:52:39;;;;;;;7.82;4.13;;;;;;;;;;5106497;28;20081;-71
2024/01/29 01:55:05;;;;;;;8.05;3.97;;;;;;;;;;5106623;28;20091;-72
2024/01/29 01:57:32;;;;;;;5.65;4.28;;;;;;;;;;5106571;28;20039;-71
2024/01/29 01:59:59;;;;;;;8.27;4.40;;;;;;;;;;5106166;28;20055;-71
2024/01/29 02:02:25;;;;;;;8.23;4.10;;;;;;;;;;5090312;28;20050;-71
2024/01/29 02:04:51;;;;;;;6.32;4.03;;;;;;;;;;5089226;28;20056;-71
2024/01/29 02:07:17;;;;;;;6.00;3.88;;;;;;;;;;5106383;28;20043;-71
2024/01/29 02:09:43;;;;;;;9.68;4.60;;;;;;;;;;5106731;28;20039;-71
2024/01/29 02:12:09;;;;;;;7.28;3.78;;;;;;;;;;5098226;28;20039;-70
2024/01/29 02:14:35;;;;;;;7.18;3.80;;;;;;;;;;5106006;28;20050;-70
2024/01/29 02:17:01;;;;;;;4.20;3.50;;;;;;;;;;5106508;28;20489;-70
2024/01/29 02:19:27;;;;;;;6.40;4.10;;;;;;;;;;5089431;28;20139;-70
2024/01/29 02:21:54;;;;;;;8.00;4.55;;;;;;;;;;5089260;28;20044;-70
2024/01/29 02:24:20;;;;;;;6.53;4.40;;;;;;;;;;5088300;28;20044;-70
2024/01/29 02:26:47;;;;;;;9.00;4.47;;;;;;;;;;5106323;28;20040;-70
2024/01/29 02:29:13;;;;;;;8.95;4.43;;;;;;;;;;5097244;28;20036;-71
2024/01/29 02:31:39;;;;;;;8.27;4.32;;;;;;;;;;5069214;28;20044;-71
2024/01/29 02:34:05;;;;;;;8.23;4.43;;;;;;;;;;5085362;28;20046;-71
2024/01/29 02:36:31;;;;;;;8.05;4.13;;;;;;;;;;5106294;28;20047;-71
2024/01/29 02:38:57;;;;;;;8.07;4.30;;;;;;;;;;5106273;28;20043;-69
2024/01/29 02:41:23;;;;;;;7.47;4.13;;;;;;;;;;5100176;28;20088;-69
2024/01/29 02:43:49;;;;;;;6.78;4.72;;;;;;;;;;5085302;28;20499;-70
2024/01/29 02:46:18;;;;;;;6.07;3.95;;;;;;;;;;5086575;28;20040;-70
2024/01/29 02:48:44;;;;;;;8.25;4.63;;;;;;;;;;5090703;28;20433;-70
2024/01/29 02:51:10;;;;;;;9.30;4.68;;;;;;;;;;5105959;28;20042;-71
2024/01/29 02:53:36;;;;;;;7.68;4.28;;;;;;;;;;5105786;28;20465;-70
2024/01/29 02:56:02;;;;;;;7.40;4.70;;;;;;;;;;5089598;28;20046;-70
2024/01/29 02:58:29;;;;;;;5.20;4.35;;;;;;;;;;5086734;28;20082;-70
2024/01/29 03:00:55;;;;;;;6.80;4.05;;;;;;;;;;5091986;28;20091;-70
2024/01/29 03:03:21;;;;;;;7.65;4.38;;;;;;;;;;5106450;28;20128;-70
2024/01/29 03:05:47;;;;;;;9.88;4.80;;;;;;;;;;5105539;28;20559;-70
2024/01/29 03:08:13;;;;;;;8.25;4.60;;;;;;;;;;5089057;28;20031;-70
2024/01/29 03:10:39;;;;;;;7.75;4.63;;;;;;;;;;5105275;28;20032;-70
2024/01/29 03:13:05;;;;;;;7.72;4.97;;;;;;;;;;5081793;28;20040;-70
2024/01/29 03:15:31;;;;;;;8.40;4.28;;;;;;;;;;5085561;28;20040;-70
2024/01/29 03:17:57;;;;;;;6.43;4.45;;;;;;;;;;5103935;28;20159;-70
2024/01/29 03:20:23;;;;;;;6.60;4.50;;;;;;;;;;5088193;28;20048;-70
2024/01/29 03:22:49;;;;;;;7.28;4.60;;;;;;;;;;5089643;28;20062;-71
2024/01/29 03:25:15;;;;;;;8.70;5.15;;;;;;;;;;5097099;28;20054;-71
2024/01/29 03:27:41;;;;;;;7.05;4.30;;;;;;;;;;5109891;28;20131;-70
2024/01/29 03:30:07;;;;;;;7.68;4.85;;;;;;;;;;5109409;28;20484;-70
2024/01/29 03:32:33;;;;;;;6.20;4.40;;;;;;;;;;5092251;28;20247;-70
2024/01/29 03:34:59;;;;;;;7.68;4.18;;;;;;;;;;5109115;28;20040;-70
2024/01/29 03:37:25;;;;;;;9.30;4.80;;;;;;;;;;5099511;28;20494;-70
2024/01/29 03:39:51;;;;;;;8.18;5.05;;;;;;;;;;5099939;28;20047;-71
2024/01/29 03:42:17;;;;;;;9.00;5.00;;;;;;;;;;5095905;28;20040;-70
2024/01/29 03:44:43;;;;;;;7.22;5.25;;;;;;;;;;5092088;28;20036;-71
2024/01/29 03:47:09;;;;;;;7.25;4.72;;;;;;;;;;5109590;28;20508;-71
2024/01/29 03:49:35;;;;;;;8.48;4.78;;;;;;;;;;5106636;28;20039;-71
2024/01/29 03:52:01;;;;;;;6.93;4.72;;;;;;;;;;5109133;28;20073;-70
2024/01/29 03:54:27;;;;;;;8.98;4.78;;;;;;;;;;5108780;28;20082;-70
2024/01/29 03:56:53;;;;;;;10.32;4.47;;;;;;;;;;5109424;28;20039;-70
2024/01/29 03:59:19;;;;;;;9.95;4.75;;;;;;;;;;5109090;28;20043;-70
2024/01/29 04:01:45;;;;;;;7.05;4.88;;;;;;;;;;5097390;28;20118;-70
2024/01/29 04:04:11;;;;;;;8.60;4.75;;;;;;;;;;5088650;28;20391;-70
2024/01/29 04:06:40;;;;;;;8.55;4.70;;;;;;;;;;5089410;28;20055;-70
2024/01/29 04:09:09;;;;;;;6.50;4.72;;;;;;;;;;5085885;28;20048;-70
2024/01/29 04:11:35;;;;;;;8.45;5.25;;;;;;;;;;5088423;28;20043;-70
2024/01/29 04:14:01;;;;;;;9.85;5.28;;;;;;;;;;5084707;28;20039;-70
2024/01/29 04:16:27;;;;;;;8.27;5.20;;;;;;;;;;5108377;28;20055;-70
2024/01/29 04:18:53;;;;;;;8.50;5.70;;;;;;;;;;5108895;28;20031;-70
2024/01/29 04:21:19;;;;;;;8.02;4.88;;;;;;;;;;5096030;28;20445;-70
2024/01/29 04:23:45;;;;;;;9.13;5.20;;;;;;;;;;5071757;28;20036;-69
2024/01/29 04:26:11;;;;;;;10.50;5.40;;;;;;;;;;5102105;28;20485;-69
2024/01/29 04:28:37;;;;;;;7.70;5.22;;;;;;;;;;5107335;28;20177;-70
2024/01/29 04:31:03;;;;;;;6.88;4.60;;;;;;;;;;5087958;28;20036;-70
2024/01/29 04:33:29;;;;;;;8.32;5.50;;;;;;;;;;5079579;28;20051;-70
2024/01/29 04:35:55;;;;;;;7.68;5.20;;;;;;;;;;5107620;28;20410;-70
2024/01/29 04:38:21;;;;;;;8.95;5.35;;;;;;;;;;5093131;28;20051;-70
2024/01/29 04:40:47;;;;;;;9.98;5.38;;;;;;;;;;5105567;28;20085;-70
2024/01/29 04:43:13;;;;;;;8.52;5.07;;;;;;;;;;5088440;28;20040;-70
2024/01/29 04:45:39;;;;;;;8.80;6.03;;;;;;;;;;5096599;28;20369;-70
2024/01/29 04:48:05;;;;;;;9.93;5.40;;;;;;;;;;5108606;28;20061;-70
2024/01/29 04:50:31;;;;;;;7.82;5.18;;;;;;;;;;5106866;28;20043;-70
2024/01/29 04:52:57;;;;;;;10.43;5.70;;;;;;;;;;5107667;28;20127;-69
2024/01/29 04:55:23;;;;;;;7.60;4.82;;;;;;;;;;5107586;28;20045;-71
2024/01/29 04:57:49;;;;;;;8.50;5.25;;;;;;;;;;5108189;28;20043;-70
2024/01/29 05:00:15;;;;;;;11.77;5.65;;;;;;;;;;5090836;28;20059;-70
2024/01/29 05:02:41;;;;;;;7.13;5.50;;;;;;;;;;5090401;28;20493;-70
2024/01/29 05:05:07;;;;;;;9.35;5.00;;;;;;;;;;5091912;28;20035;-70
2024/01/29 05:07:33;;;;;;;7.97;5.25;;;;;;;;;;5106390;28;20442;-70
2024/01/29 05:09:59;;;;;;;9.07;5.53;;;;;;;;;;5095990;28;20068;-70
2024/01/29 05:12:25;;;;;;;7.38;5.07;;;;;;;;;;5098375;28;20416;-70
2024/01/29 05:14:51;;;;;;;7.82;5.70;;;;;;;;;;5107642;28;20039;-70
2024/01/29 05:17:17;;;;;;;7.75;5.10;;;;;;;;;;5106996;28;20341;-70
2024/01/29 05:19:45;;;;;;;7.15;5.90;;;;;;;;;;5107567;28;20315;-70
2024/01/29 05:22:12;;;;;;;8.07;5.25;;;;;;;;;;5094610;28;20514;-70
2024/01/29 05:24:38;;;;;;;8.23;5.65;;;;;;;;;;5086958;28;20051;-71
2024/01/29 05:27:04;;;;;;;9.73;5.55;;;;;;;;;;5106555;28;20438;-70
2024/01/29 05:29:30;;;;;;;9.02;5.07;;;;;;;;;;5100010;28;20485;-69
2024/01/29 05:31:56;;;;;;;9.32;5.15;;;;;;;;;;5070065;28;20044;-69
2024/01/29 05:34:22;;;;;;;9.77;5.55;;;;;;;;;;5101304;28;20518;-70
2024/01/29 05:36:48;;;;;;;10.27;5.40;;;;;;;;;;5106226;28;20043;-71
2024/01/29 05:39:14;;;;;;;8.35;5.55;;;;;;;;;;5106753;28;20456;-70
2024/01/29 05:41:40;;;;;;;7.72;5.45;;;;;;;;;;5106394;28;20049;-70
2024/01/29 05:44:06;;;;;;;8.30;5.47;;;;;;;;;;5107714;28;20672;-69
2024/01/29 05:46:32;;;;;;;9.55;5.70;;;;;;;;;;5106274;28;20067;-70
2024/01/29 05:48:58;;;;;;;8.88;5.43;;;;;;;;;;5089951;28;20046;-70
2024/01/29 05:51:24;;;;;;;12.18;5.88;;;;;;;;;;5107542;28;20039;-70
2024/01/29 05:53:50;;;;;;;11.48;5.40;;;;;;;;;;5099902;28;20036;-70
2024/01/29 05:56:16;;;;;;;8.52;5.68;;;;;;;;;;5088374;28;20441;-70
2024/01/29 05:58:45;;;;;;;10.30;5.72;;;;;;;;;;5096734;28;20036;-70
2024/01/29 06:01:11;;;;;;;8.48;5.30;;;;;;;;;;5087245;28;20126;-70
2024/01/29 06:03:37;;;;;;;10.15;5.75;;;;;;;;;;5107515;28;20040;-70
2024/01/29 06:06:03;;;;;;;9.43;5.60;;;;;;;;;;5091532;28;20427;-70
2024/01/29 06:08:29;;;;;;;9.35;5.78;;;;;;;;;;5108742;28;20667;-70
2024/01/29 06:10:55;;;;;;;9.25;5.90;;;;;;;;;;5091261;28;20039;-70
2024/01/29 06:13:23;;;;;;;9.25;5.68;;;;;;;;;;5075067;28;20160;-70
2024/01/29 06:15:49;;;;;;;9.20;5.80;;;;;;;;;;5109036;28;20122;-69
2024/01/29 06:18:16;;;;;;;10.10;5.95;;;;;;;;;;5107905;28;20047;-70
2024/01/29 06:20:42;;;;;;;10.90;5.88;;;;;;;;;;5101348;28;20050;-70
2024/01/29 06:23:09;;;;;;;9.65;6.10;;;;;;;;;;5087941;28;20335;-70
2024/01/29 06:25:35;;;;;;;12.43;5.82;;;;;;;;;;5090167;28;20073;-70
2024/01/29 06:28:01;;;;;;;9.05;6.00;;;;;;;;;;5086978;28;20543;-70
2024/01/29 06:30:27;;;;;;;9.85;5.95;;;;;;;;;;5087365;28;20050;-70
2024/01/29 06:32:53;;;;;;;8.10;5.25;;;;;;;;;;5087729;28;20048;-70
2024/01/29 06:35:19;;;;;;;11.60;5.60;;;;;;;;;;5108588;28;20036;-70
2024/01/29 06:37:45;;;;;;;8.32;5.72;;;;;;;;;;5100808;28;20036;-70
2024/01/29 06:40:11;;;;;;;10.18;6.10;;;;;;;;;;5084585;28;20099;-71
2024/01/29 06:42:37;;;;;;;8.45;6.00;;;;;;;;;;5092283;28;20123;-70
2024/01/29 06:45:04;;;;;;;10.13;6.13;;;;;;;;;;5088844;28;20028;-70
2024/01/29 06:47:30;;;;;;;8.38;5.97;;;;;;;;;;5107844;28;20213;-71
2024/01/29 06:49:58;;;;;;;8.27;6.20;;;;;;;;;;5100166;28;20044;-71
2024/01/29 06:52:25;;;;;;;11.48;6.80;;;;;;;;;;5091918;28;20052;-71
2024/01/29 06:54:51;;;;;;;9.55;6.20;;;;;;;;;;5107998;28;20435;-71
2024/01/29 06:57:17;;;;;;;10.50;6.20;;;;;;;;;;5112421;28;20054;-71
2024/01/29 06:59:43;;;;;;;9.30;6.15;;;;;;;;;;5094497;28;20039;-71
2024/01/29 07:02:09;;;;;;;9.57;6.10;;;;;;;;;;5112130;28;20054;-71
2024/01/29 07:04:35;;;;;;;8.95;6.40;;;;;;;;;;5112478;28;20051;-71
2024/01/29 07:07:01;;;;;;;12.13;6.05;;;;;;;;;;5111697;28;20096;-63
2024/01/29 07:09:27;;;;;;;10.57;6.22;;;;;;;;;;5102547;28;20075;-65
2024/01/29 07:11:53;;;;;;;11.90;6.00;;;;;;;;;;5094585;28;20043;-66
2024/01/29 07:14:19;;;;;;;9.70;5.97;;;;;;;;;;5103347;28;20448;-66
2024/01/29 07:16:46;;;;;;;10.50;5.97;;;;;;;;;;5113497;28;20046;-67
2024/01/29 07:19:13;;;;;;;8.95;6.53;;;;;;;;;;5112385;28;20039;-66
2024/01/29 07:21:41;;;;;;;11.55;6.78;;;;;;;;;;5111980;28;20050;-66
2024/01/29 07:24:07;;;;;;;9.75;6.25;;;;;;;;;;5113184;28;20047;-67
2024/01/29 07:26:33;;;;;;;10.38;6.70;;;;;;;;;;5113215;28;20491;-66
2024/01/29 07:28:59;;;;;;;11.80;6.18;;;;;;;;;;5111265;28;20039;-66
2024/01/29 07:31:25;;;;;;;10.57;6.63;;;;;;;;;;5111516;28;20720;-66
2024/01/29 07:33:51;;;;;;;11.45;6.20;;;;;;;;;;5112455;28;20059;-66
2024/01/29 07:36:17;;;;;;;9.30;6.75;;;;;;;;;;5112044;28;20086;-65
2024/01/29 07:38:43;;;;;;;10.77;6.88;;;;;;;;;;5111827;28;20040;-65
2024/01/29 07:41:09;;;;;;;9.70;6.32;;;;;;;;;;5111987;28;20067;-66
2024/01/29 07:43:35;;;;;;;9.32;6.45;;;;;;;;;;5110783;28;20079;-66
2024/01/29 07:46:01;;;;;;;10.15;6.20;;;;;;;;;;5111723;28;20040;-66
2024/01/29 07:48:27;;;;;;;8.90;6.88;;;;;;;;;;5111808;28;20050;-66
2024/01/29 07:50:53;;;;;;;8.05;6.20;;;;;;;;;;5110769;28;20139;-67
2024/01/29 07:53:19;;;;;;;8.40;6.80;;;;;;;;;;5111044;28;20358;-67
2024/01/29 07:55:45;;;;;;;10.40;6.30;;;;;;;;;;5106031;28;20044;-66
2024/01/29 07:58:11;;;;;;;10.13;6.60;;;;;;;;;;5110695;28;20043;-67
2024/01/29 08:00:37;;;;;;;9.50;6.93;;;;;;;;;;5113308;27;20054;-66
2024/01/29 08:03:03;;;;;;;10.13;6.65;;;;;;;;;;5115244;27;20552;-67
2024/01/29 08:05:29;;;;;;;10.52;6.80;;;;;;;;;;5115006;27;20054;-65
2024/01/29 08:07:56;;;;;;;11.05;7.07;;;;;;;;;;5120804;27;20036;-67
2024/01/29 08:10:21;;;;;;;10.73;6.60;;;;;;;;;;5114639;27;20126;-65
2024/01/29 08:12:47;;;;;;;8.73;6.50;;;;;;;;;;5111895;28;20123;-66
2024/01/29 08:15:14;;;;;;;12.18;6.95;;;;;;;;;;5111815;28;20036;-67
2024/01/29 08:17:40;;;;;;;9.65;6.60;;;;;;;;;;5111665;28;20074;-67
2024/01/29 08:20:06;;;;;;;11.35;7.07;;;;;;;;;;5111035;28;20413;-66
2024/01/29 08:22:33;;;;;;;12.48;6.50;;;;;;;;;;5110105;28;20047;-66
2024/01/29 08:24:59;;;;;;;10.32;6.82;;;;;;;;;;5111355;28;20035;-68
2024/01/29 08:27:29;;;;;;;10.43;6.82;;;;;;;;;;5093352;28;20063;-68
2024/01/29 08:29:55;;;;;;;11.80;6.85;;;;;;;;;;5109015;28;20088;-68
2024/01/29 08:32:23;;;;;;;10.75;6.55;;;;;;;;;;5110225;28;20051;-69
2024/01/29 08:34:49;;;;;;;9.73;6.82;;;;;;;;;;5093166;28;20032;-67
2024/01/29 08:37:15;;;;;;;9.88;6.80;;;;;;;;;;5110032;28;20043;-67
2024/01/29 08:39:41;;;;;;;9.27;6.47;;;;;;;;;;5109957;28;20183;-66
2024/01/29 08:42:07;;;;;;;11.23;7.03;;;;;;;;;;5104131;28;20035;-66
2024/01/29 08:44:33;;;;;;;11.18;6.93;;;;;;;;;;5109478;28;20036;-66
2024/01/29 08:46:59;;;;;;;9.20;7.25;;;;;;;;;;5110036;28;20498;-67
2024/01/29 08:49:25;;;;;;;10.57;6.80;;;;;;;;;;5109750;28;20202;-67
2024/01/29 08:51:51;;;;;;;10.52;7.07;;;;;;;;;;5111173;28;20139;-67
2024/01/29 08:54:17;;;;;;;11.93;7.22;;;;;;;;;;5110507;28;20063;-69
2024/01/29 08:56:43;;;;;;;10.80;7.05;;;;;;;;;;5111020;28;20457;-68
2024/01/29 08:59:09;;;;;;;11.70;7.22;;;;;;;;;;5108507;28;20074;-67
2024/01/29 09:01:35;;;;;;;9.80;6.88;;;;;;;;;;5110317;28;20051;-68
2024/01/29 09:04:01;;;;;;;10.85;7.40;;;;;;;;;;5111090;28;20036;-66
2024/01/29 09:06:27;;;;;;;10.18;7.43;;;;;;;;;;5109210;28;20366;-66
2024/01/29 09:08:53;;;;;;;15.60;8.50;;;;;;;;;;5109257;28;20058;-66
2024/01/29 09:11:19;;;;;;;12.13;7.30;;;;;;;;;;5109947;28;20039;-67
2024/01/29 09:13:45;;;;;;;12.18;7.25;;;;;;;;;;5102903;28;20045;-66
2024/01/29 09:16:11;;;;;;;13.43;7.70;;;;;;;;;;5101570;28;20050;-67
2024/01/29 09:18:37;;;;;;;11.55;7.45;;;;;;;;;;5102972;28;20071;-66
2024/01/29 09:21:03;;;;;;;13.02;7.97;;;;;;;;;;5096734;28;20032;-67
2024/01/29 09:23:29;;;;;;;12.20;7.63;;;;;;;;;;5109832;28;20251;-66
2024/01/29 09:25:55;;;;;;;11.38;7.75;;;;;;;;;;5104207;28;20060;-68
2024/01/29 09:28:21;;;;;;;12.70;8.18;;;;;;;;;;5108180;28;20075;-69
2024/01/29 09:30:47;;;;;;;12.35;7.82;;;;;;;;;;5106786;28;20059;-67
2024/01/29 09:33:13;;;;;;;11.32;8.55;;;;;;;;;;5085245;28;20519;-69
2024/01/29 09:35:39;;;;;;;11.60;8.15;;;;;;;;;;5107294;28;20084;-68
2024/01/29 09:38:05;;;;;;;13.60;8.32;;;;;;;;;;5090222;28;20118;-70
2024/01/29 09:40:31;;;;;;;10.48;7.78;;;;;;;;;;5106716;28;20050;-68
2024/01/29 09:42:57;;;;;;;15.65;8.52;;;;;;;;;;5108125;28;20050;-68
2024/01/29 09:45:23;;;;;;;12.82;8.35;;;;;;;;;;5106770;28;20629;-70
2024/01/29 09:47:50;;;;;;;12.20;8.15;;;;;;;;;;5109394;28;20397;-68
2024/01/29 09:50:16;;;;;;;12.88;8.00;;;;;;;;;;5107200;28;20039;-67
2024/01/29 09:52:43;;;;;;;13.13;8.40;;;;;;;;;;5094859;28;20374;-68
2024/01/29 09:55:13;;;;;;;14.65;8.48;;;;;;;;;;5108305;28;20084;-69
2024/01/29 09:57:39;;;;;;;12.93;8.20;;;;;;;;;;5107295;28;20377;-68
2024/01/29 10:00:07;;;;;;;13.10;8.00;;;;;;;;;;5107415;28;20039;-70
2024/01/29 10:02:36;;;;;;;13.00;8.18;;;;;;;;;;5107569;28;20119;-68
2024/01/29 10:05:07;;;;;;;11.63;8.90;;;;;;;;;;5108640;28;20111;-68
2024/01/29 10:07:33;;;;;;;13.20;9.52;;;;;;;;;;5108230;28;20050;-69
2024/01/29 10:10:01;;;;;;;14.20;9.30;;;;;;;;;;5106974;28;20031;-67
2024/01/29 10:12:28;;;;;;;17.00;9.68;;;;;;;;;;5109537;28;20127;-67
2024/01/29 10:14:57;;;;;;;16.73;9.45;;;;;;;;;;5108421;28;20047;-66
2024/01/29 10:17:26;;;;;;;11.93;9.02;;;;;;;;;;5108738;28;20052;-69
2024/01/29 10:19:53;;;;;;;14.75;9.98;;;;;;;;;;5108268;28;20040;-70
2024/01/29 10:22:24;;;;;;;14.15;9.85;;;;;;;;;;5104543;28;20046;-66
2024/01/29 10:24:59;;;;;;;15.13;10.00;;;;;;;;;;5122013;27;20051;-67
2024/01/29 10:27:25;;;;;;;15.57;10.23;;;;;;;;;;5121715;27;20445;-67
2024/01/29 10:29:51;;;;;;;14.35;10.15;;;;;;;;;;5119130;27;20047;-67
2024/01/29 10:32:17;;;;;;;13.75;9.65;;;;;;;;;;5105432;28;20043;-67
2024/01/29 10:34:43;;;;;;;14.00;9.60;;;;;;;;;;5104609;28;20054;-67
2024/01/29 10:37:11;;;;;;;15.57;9.68;;;;;;;;;;5109266;28;20040;-66
2024/01/29 10:39:38;;;;;;;14.85;9.80;;;;;;;;;;5108589;28;20126;-66
2024/01/29 10:42:05;;;;;;;12.95;9.35;;;;;;;;;;5104241;28;20091;-66
2024/01/29 10:44:35;;;;;;;16.02;9.65;;;;;;;;;;5104375;28;20040;-68
2024/01/29 10:47:03;;;;;;;15.75;10.35;;;;;;;;;;5098054;28;20430;-66
2024/01/29 10:49:30;;;;;;;14.77;10.13;;;;;;;;;;5102727;28;20090;-68
2024/01/29 10:51:57;;;;;;;16.02;10.20;;;;;;;;;;5097241;28;20070;-68
2024/01/29 10:54:23;;;;;;;14.80;10.32;;;;;;;;;;5106003;28;20481;-66
2024/01/29 10:56:50;;;;;;;13.13;9.63;;;;;;;;;;5109087;28;20035;-66
2024/01/29 10:59:20;;;;;;;16.75;10.25;;;;;;;;;;5108825;28;20044;-68
2024/01/29 11:01:46;;;;;;;16.08;10.20;;;;;;;;;;5108340;28;20103;-67
2024/01/29 11:04:15;;;;;;;18.35;10.73;;;;;;;;;;5109030;28;20078;-67
2024/01/29 11:06:45;;;;;;;15.45;10.02;;;;;;;;;;5108983;28;20501;-66
2024/01/29 11:09:13;;;;;;;17.95;9.88;;;;;;;;;;5101464;28;20062;-67
2024/01/29 11:11:40;;;;;;;16.60;10.75;;;;;;;;;;5107158;28;20038;-66
2024/01/29 11:14:08;;;;;;;15.75;10.93;;;;;;;;;;5108115;28;20440;-70
2024/01/29 11:16:38;;;;;;;15.40;10.30;;;;;;;;;;5079034;28;20036;-68
2024/01/29 11:19:04;;;;;;;15.70;10.98;;;;;;;;;;5106952;28;20035;-67
2024/01/29 11:21:31;;;;;;;18.23;10.77;;;;;;;;;;5099925;28;20047;-67
2024/01/29 11:23:58;;;;;;;18.70;11.63;;;;;;;;;;5093953;28;20763;-67
2024/01/29 11:26:28;;;;;;;16.67;11.07;;;;;;;;;;5092548;28;20541;-66
2024/01/29 11:28:58;;;;;;;18.08;11.30;;;;;;;;;;5100923;28;20052;-67
2024/01/29 11:31:24;;;;;;;16.83;11.35;;;;;;;;;;5100664;28;20036;-66
2024/01/29 11:33:50;;;;;;;15.68;11.73;;;;;;;;;;5104239;28;20579;-67
2024/01/29 11:36:16;;;;;;;18.45;11.50;;;;;;;;;;5094381;28;20054;-67
2024/01/29 11:38:43;;;;;;;15.45;11.38;;;;;;;;;;5107960;28;20039;-68
2024/01/29 11:41:09;;;;;;;17.63;11.40;;;;;;;;;;5106479;27;20040;-68
2024/01/29 11:43:35;;;;;;;17.92;11.80;;;;;;;;;;5108624;28;20044;-68
2024/01/29 11:46:03;;;;;;;19.30;11.05;;;;;;;;;;5109460;28;20082;-66
2024/01/29 11:48:29;;;;;;;17.75;11.13;;;;;;;;;;5111483;28;20042;-66
2024/01/29 11:50:57;;;;;;;20.08;11.50;;;;;;;;;;5108996;28;20039;-66
2024/01/29 11:53:25;;;;;;;17.30;11.60;;;;;;;;;;5092716;28;20092;-66
2024/01/29 11:55:51;;;;;;;15.38;10.45;;;;;;;;;;5103530;28;20051;-67
2024/01/29 11:58:21;;;;;;;16.77;11.23;;;;;;;;;;5111881;28;20051;-67
2024/01/29 12:00:48;;;;;;;16.40;10.98;;;;;;;;;;5111086;28;20150;-67
2024/01/29 12:03:15;;;;;;;19.33;11.73;;;;;;;;;;5109559;28;20413;-67
2024/01/29 12:05:41;;;;;;;20.13;12.68;;;;;;;;;;5110017;28;20040;-68
2024/01/29 12:08:14;;;;;;;20.27;11.70;;;;;;;;;;5094200;28;20544;-67
2024/01/29 12:10:40;;;;;;;17.33;11.25;;;;;;;;;;5107206;28;20146;-67
2024/01/29 12:13:11;;;;;;;19.33;11.02;;;;;;;;;;5109630;28;20386;-68
2024/01/29 12:15:37;;;;;;;20.67;11.45;;;;;;;;;;5109010;28;20366;-68
2024/01/29 12:18:07;;;;;;;19.25;12.07;;;;;;;;;;5110093;28;20096;-69
2024/01/29 12:20:34;;;;;;;15.98;10.80;;;;;;;;;;5105267;28;20039;-69
2024/01/29 12:23:00;;;;;;;18.85;11.10;;;;;;;;;;5101440;28;20485;-69
2024/01/29 12:25:27;;;;;;;21.65;12.32;;;;;;;;;;5104661;28;20127;-68
2024/01/29 12:28:01;;;;;;;24.88;13.43;;;;;;;;;;5108470;28;20548;-68
2024/01/29 12:30:27;;;;;;;26.08;13.68;;;;;;;;;;5109317;28;20043;-67
2024/01/29 12:32:54;;;;;;;20.60;15.50;;;;;;;;;;5109658;28;20089;-67
2024/01/29 12:35:30;;;;;;;22.02;13.10;;;;;;;;;;5101878;28;20083;-67
2024/01/29 12:38:16;;;;;;;23.58;13.77;;;;;;;;;;5103290;28;20089;-67
2024/01/29 12:40:42;;;;;;;23.80;15.00;;;;;;;;;;5110494;28;20098;-67
2024/01/29 12:43:13;;;;;;;19.92;13.05;;;;;;;;;;5106880;28;20608;-68
2024/01/29 12:45:41;;;;;;;18.50;11.73;;;;;;;;;;5111090;28;20046;-68
2024/01/29 12:48:12;;;;;;;19.98;12.48;;;;;;;;;;5110802;28;20040;-68
2024/01/29 12:50:39;;;;;;;18.52;12.70;;;;;;;;;;5110559;28;20114;-68
2024/01/29 12:53:05;;;;;;;19.02;13.00;;;;;;;;;;5110480;28;20062;-68
2024/01/29 12:55:31;;;;;;;18.85;11.52;;;;;;;;;;5097331;28;20051;-69
2024/01/29 12:57:57;;;;;;;19.48;12.50;;;;;;;;;;5104484;28;20039;-68
2024/01/29 13:00:23;;;;;;;19.60;11.93;;;;;;;;;;5092913;28;20135;-69
2024/01/29 13:02:51;;;;;;;17.10;12.48;;;;;;;;;;5106614;28;20517;-67
2024/01/29 13:05:17;;;;;;;18.88;11.73;;;;;;;;;;5109121;28;20096;-68
2024/01/29 13:07:43;;;;;;;18.88;11.80;;;;;;;;;;5109621;28;20039;-69
2024/01/29 13:10:10;;;;;;;18.77;11.88;;;;;;;;;;5108980;28;20039;-70
2024/01/29 13:12:36;;;;;;;19.95;12.27;;;;;;;;;;5109746;28;20130;-70
2024/01/29 13:15:02;;;;;;;18.73;12.45;;;;;;;;;;5108885;28;20127;-68
2024/01/29 13:17:29;;;;;;;15.18;11.43;;;;;;;;;;5110669;28;20048;-70
2024/01/29 13:19:55;;;;;;;19.80;12.10;;;;;;;;;;5110177;27;20070;-70
2024/01/29 13:22:21;;;;;;;17.85;11.15;;;;;;;;;;5101806;28;20071;-70
2024/01/29 13:24:48;;;;;;;18.50;11.73;;;;;;;;;;5105732;28;20694;-68
2024/01/29 13:27:14;;;;;;;19.15;11.23;;;;;;;;;;5103446;28;20035;-71
2024/01/29 13:29:40;;;;;;;17.55;11.93;;;;;;;;;;5109565;28;20043;-69
2024/01/29 13:32:07;;;;;;;18.98;12.15;;;;;;;;;;5101780;28;20039;-70
2024/01/29 13:34:33;;;;;;;17.05;11.85;;;;;;;;;;5107898;28;20036;-67
2024/01/29 13:36:59;;;;;;;15.68;12.10;;;;;;;;;;5109091;28;20047;-68
2024/01/29 13:39:25;;;;;;;18.40;11.75;;;;;;;;;;5109658;28;20670;-69
2024/01/29 13:41:51;;;;;;;19.92;12.43;;;;;;;;;;5110114;28;20047;-68
2024/01/29 13:44:17;;;;;;;18.52;12.43;;;;;;;;;;5108615;28;20032;-68
2024/01/29 13:46:43;;;;;;;19.20;11.63;;;;;;;;;;5107987;28;20034;-67
2024/01/29 13:49:09;;;;;;;15.60;11.90;;;;;;;;;;5107540;28;20458;-67
2024/01/29 13:51:35;;;;;;;17.65;12.32;;;;;;;;;;5098192;28;20085;-68
2024/01/29 13:54:01;;;;;;;19.92;12.52;;;;;;;;;;5092658;28;20036;-66
2024/01/29 13:56:27;;;;;;;21.08;13.18;;;;;;;;;;5104872;28;20160;-68
2024/01/29 13:58:54;;;;;;;20.23;12.90;;;;;;;;;;5108577;28;20623;-69
2024/01/29 14:01:20;;;;;;;16.35;11.98;;;;;;;;;;5098063;28;20055;-68
2024/01/29 14:03:46;;;;;;;17.60;11.98;;;;;;;;;;5098877;28;20075;-68
2024/01/29 14:06:15;;;;;;;18.58;12.23;;;;;;;;;;5106993;28;20043;-69
2024/01/29 14:08:41;;;;;;;18.80;12.90;;;;;;;;;;5107871;28;20699;-69
2024/01/29 14:11:08;;;;;;;17.13;12.55;;;;;;;;;;5108165;28;20146;-69
2024/01/29 14:13:35;;;;;;;16.23;11.80;;;;;;;;;;5081049;28;20066;-68
2024/01/29 14:16:04;;;;;;;16.52;12.27;;;;;;;;;;5106710;28;20047;-69
2024/01/29 14:18:37;;;;;;;17.42;13.18;;;;;;;;;;5102925;28;20036;-67
2024/01/29 14:21:04;;;;;;;17.92;11.80;;;;;;;;;;5098025;28;20050;-70
2024/01/29 14:23:30;;;;;;;18.98;13.18;;;;;;;;;;5107286;28;20043;-69
2024/01/29 14:25:56;;;;;;;20.50;12.90;;;;;;;;;;5108365;28;20064;-69
2024/01/29 14:28:22;;;;;;;19.80;13.07;;;;;;;;;;5108269;28;20089;-67